FW3861 East Rockaway NY US current weather conditions

sailwx.info

Wind from 290 at 5 knots gusting 7

Air temperature 6.7° C
Dewpoint 1.0° C

Last reported at 2019-Dec-06 17:00 UTC.
Time now 2019-Dec-06 17:40 UTC

Location: N 40°38' W 073°40'.
View on Google Maps.

See reports from other nearby stations

  
Tides and Currents Weather Stations Pressure Air Temp Water Temp Dewpoint Dewpoint Depression Visibility Wind Speed Wind Dir Waves Ship Positions
date/time (UTC)wind fromknots sea level pressurealtimeterstation pressurevisibilityair tempwater tempwave heightnotes
2019-Dec-06 17:00 290 5 gusting 7 6.7
2019-Dec-06 16:50 204 5 gusting 7 6.1
2019-Dec-06 16:40 215 4 gusting 6 6.7
2019-Dec-06 16:30 247 5 gusting 7 6.7
2019-Dec-06 16:20 232 4 gusting 6 6.7
2019-Dec-06 16:10 222 4 gusting 6 6.1
2019-Dec-06 16:00 201 4 gusting 7 6.1
2019-Dec-06 15:50 249 2 gusting 4 6.1
2019-Dec-06 15:40 239 2 gusting 5 6.1
2019-Dec-06 15:30 241 1 gusting 4 5.6
2019-Dec-06 15:20 261 3 gusting 5 5.0
2019-Dec-06 15:10 255 3 gusting 6 5.0
2019-Dec-06 15:00 242 2 gusting 5 5.0
2019-Dec-06 14:50 256 2 gusting 4 5.0
2019-Dec-06 14:40 229 1 gusting 3 4.4
2019-Dec-06 14:30 254 1 gusting 4 4.4
2019-Dec-06 14:20 263 2 gusting 5 4.4
2019-Dec-06 14:10 258 3 gusting 6 4.4
2019-Dec-06 14:00 194 2 gusting 5 4.4
2019-Dec-06 13:50 193 2 gusting 4 3.9
2019-Dec-06 13:40 236 2 gusting 4 3.9
2019-Dec-06 13:30 292 1 gusting 3 3.3
2019-Dec-06 13:20 270 3.3
2019-Dec-06 13:10 293 2.8
2019-Dec-06 13:00 225 1.7
2019-Dec-06 12:50 284 0 gusting 2 1.7
2019-Dec-06 12:40 283 0 gusting 2 1.7
2019-Dec-06 12:30 277 0 gusting 1 1.7
2019-Dec-06 12:20 263 0 gusting 2 1.7
2019-Dec-06 12:10 235 0 gusting 1 1.1
2019-Dec-06 12:00 270 0 gusting 1 1.1
2019-Dec-06 11:50 1.1
2019-Dec-06 11:40 1.1
2019-Dec-06 11:30 0.6
2019-Dec-06 11:20 0.6
2019-Dec-06 11:10 0.6
2019-Dec-06 11:00 -0.0
2019-Dec-06 10:50 -0.0
2019-Dec-06 10:40 -0.0
2019-Dec-06 10:30 -0.0
2019-Dec-06 10:20 -0.0
2019-Dec-06 10:10 -0.0
2019-Dec-06 10:00 -0.0
2019-Dec-06 09:50 -0.0
2019-Dec-06 09:40 0.6
2019-Dec-06 09:30 0.6
2019-Dec-06 09:20 1.1
2019-Dec-06 09:10 293 1.1
2019-Dec-06 09:00 294 0 gusting 1 1.1
2019-Dec-06 08:50 279 0 gusting 3 1.7
2019-Dec-06 08:40 299 2 gusting 3 1.1
2019-Dec-06 08:30 276 2 gusting 3 1.1
2019-Dec-06 08:20 293 2 gusting 4 1.1
2019-Dec-06 08:10 318 1 gusting 3 1.7
2019-Dec-06 08:00 336 0 gusting 2 1.7
2019-Dec-06 07:50 309 3 gusting 5 1.7
2019-Dec-06 07:40 281 3 gusting 6 1.7
2019-Dec-06 07:30 273 2 gusting 4 1.7
2019-Dec-06 07:20 301 4 gusting 7 1.7
2019-Dec-06 07:10 288 4 gusting 6 1.7
2019-Dec-06 07:00 323 6 gusting 8 1.7
2019-Dec-06 06:50 281 4 gusting 7 1.7
2019-Dec-06 06:40 300 2 gusting 4 1.7
2019-Dec-06 06:30 283 3 gusting 5 1.7
2019-Dec-06 06:20 283 3 gusting 6 2.2
2019-Dec-06 06:10 287 6 gusting 9 2.2
2019-Dec-06 06:00 305 4 gusting 6 2.2
2019-Dec-06 05:50 299 4 gusting 6 1.7
2019-Dec-06 05:40 292 2 gusting 5 1.7
2019-Dec-06 05:30 293 1 gusting 3 2.2
2019-Dec-06 05:20 293 4 gusting 6 2.2
2019-Dec-06 05:10 306 4 gusting 6 2.2
2019-Dec-06 05:00 197 5 gusting 8 2.2
2019-Dec-06 04:50 305 3 gusting 6 2.8
2019-Dec-06 04:40 263 5 gusting 9 2.8
2019-Dec-06 04:30 303 3 gusting 6 2.8
2019-Dec-06 04:20 276 6 gusting 9 2.8
2019-Dec-06 04:10 279 4 gusting 6 2.8
2019-Dec-06 04:00 281 6 gusting 9 2.8
2019-Dec-06 03:50 302 5 gusting 8 2.8
2019-Dec-06 03:40 284 6 gusting 10 3.3
2019-Dec-06 03:30 281 6 gusting 9 3.3
2019-Dec-06 03:20 297 6 gusting 7 3.3
2019-Dec-06 03:10 304 6 gusting 13 3.3
2019-Dec-06 03:00 298 6 gusting 13 3.3
2019-Dec-06 02:50 287 6 gusting 12 3.3
2019-Dec-06 02:40 289 6 gusting 8 3.3
2019-Dec-06 02:30 300 4 gusting 6 2.8
2019-Dec-06 02:20 294 5 gusting 6 2.8
2019-Dec-06 02:10 266 4 gusting 8 3.3
2019-Dec-06 02:00 277 5 gusting 10 3.3
2019-Dec-06 01:50 314 4 gusting 10 3.3
2019-Dec-06 01:40 301 4 gusting 6 3.3
2019-Dec-06 01:30 290 4 gusting 6 3.3
2019-Dec-06 01:20 295 4 gusting 6 3.3
2019-Dec-06 01:10 292 4 gusting 6 3.3
2019-Dec-06 01:00 307 4 gusting 6 3.3
2019-Dec-06 00:50 286 5 gusting 10 3.3
2019-Dec-06 00:40 282 6 gusting 9 3.3
2019-Dec-06 00:30 284 6 gusting 12 3.3
2019-Dec-06 00:20 287 6 gusting 8 3.3
2019-Dec-06 00:10 302 5 gusting 7 3.3
2019-Dec-06 00:00 293 5 gusting 10 3.9
2019-Dec-05 23:50 316 5 gusting 6 3.9
2019-Dec-05 23:40 291 5 gusting 6 3.9
2019-Dec-05 23:30 318 5 gusting 8 3.9
2019-Dec-05 23:20 286 5 gusting 6 3.9
2019-Dec-05 23:10 296 5 gusting 8 3.9
2019-Dec-05 23:00 296 3 gusting 6 4.4
2019-Dec-05 22:50 301 6 gusting 8 4.4
2019-Dec-05 22:40 283 6 gusting 8 4.4
2019-Dec-05 22:30 295 6 gusting 8 4.4
2019-Dec-05 22:20 313 6 gusting 9 4.4
2019-Dec-05 22:10 295 5 gusting 6 4.4
2019-Dec-05 22:00 288 6 gusting 10 4.4
2019-Dec-05 21:50 307 5 gusting 7 4.4
2019-Dec-05 21:40 283 4 gusting 6 4.4
2019-Dec-05 21:30 278 5 gusting 8 4.4
2019-Dec-05 21:20 286 6 gusting 12 4.4
2019-Dec-05 21:10 277 6 gusting 10 4.4
2019-Dec-05 21:00 316 7 gusting 10 5.0
2019-Dec-05 20:50 299 6 gusting 8 5.0
2019-Dec-05 20:40 295 7 gusting 11 5.0
2019-Dec-05 20:30 296 4 gusting 6 5.0
2019-Dec-05 20:20 295 6 gusting 10 5.0
2019-Dec-05 20:10 303 6 gusting 8 5.6
2019-Dec-05 20:00 311 6 gusting 8 5.6
2019-Dec-05 19:50 310 6 gusting 13 5.6
2019-Dec-05 19:40 295 6 gusting 11 5.6
2019-Dec-05 19:30 305 8 gusting 13 6.1
2019-Dec-05 19:20 300 7 gusting 12 5.6
2019-Dec-05 19:10 315 9 gusting 12 5.6
2019-Dec-05 19:00 286 8 gusting 13 5.6
2019-Dec-05 18:50 276 6 gusting 9 5.6
2019-Dec-05 18:40 316 7 gusting 11 5.6
2019-Dec-05 18:30 293 6 gusting 10 6.1
2019-Dec-05 18:20 281 7 gusting 10 6.7
2019-Dec-05 18:10 294 8 gusting 11 6.7
2019-Dec-05 18:00 291 7 gusting 10 6.1
2019-Dec-05 17:50 293 6 gusting 10 6.1
2019-Dec-05 17:40 292 9 gusting 13 6.1
2019-Dec-05 17:30 267 6 gusting 11 5.6
2019-Dec-05 17:20 305 11 gusting 14 5.6
2019-Dec-05 17:10 312 5 gusting 9 5.6
2019-Dec-05 17:00 301 7 gusting 11 5.6
2019-Dec-05 16:50 306 8 gusting 14 5.6
2019-Dec-05 16:40 293 11 gusting 16 5.6
2019-Dec-05 16:30 282 7 gusting 12 5.0
2019-Dec-05 16:20 293 6 gusting 13 5.6
2019-Dec-05 16:10 300 11 gusting 14 6.1
2019-Dec-05 16:00 279 7 gusting 11 6.1
2019-Dec-05 15:50 302 6 gusting 12 6.1
2019-Dec-05 15:40 293 6 gusting 13 6.1
2019-Dec-05 15:30 295 9 gusting 13 6.1
2019-Dec-05 15:20 292 6 gusting 8 5.6
2019-Dec-05 15:10 296 6 gusting 8 5.6
2019-Dec-05 15:00 286 6 gusting 8 5.6
2019-Dec-05 14:50 301 5 gusting 6 5.6
2019-Dec-05 14:40 293 6 gusting 10 5.6
2019-Dec-05 14:30 320 5 gusting 6 5.6
2019-Dec-05 14:20 293 3 gusting 6 5.0
2019-Dec-05 14:10 293 5 gusting 8 5.0
2019-Dec-05 14:00 301 5 gusting 10 5.0
2019-Dec-05 13:50 291 6 gusting 9 5.0
2019-Dec-05 13:40 298 5 gusting 7 4.4
2019-Dec-05 13:30 302 6 gusting 8 4.4
2019-Dec-05 13:20 303 3 gusting 5 3.9
2019-Dec-05 13:10 280 4 gusting 5 3.9
2019-Dec-05 13:00 281 2 gusting 5 3.3
2019-Dec-05 12:50 276 2 gusting 5 3.3
2019-Dec-05 12:40 304 4 gusting 6 3.3
2019-Dec-05 12:30 279 3 gusting 6 2.8
2019-Dec-05 12:20 319 3 gusting 5 2.8
2019-Dec-05 12:10 292 3 gusting 6 2.8
2019-Dec-05 12:00 284 1 gusting 3 2.8
2019-Dec-05 11:50 290 3 gusting 4 2.8
2019-Dec-05 11:40 286 2 gusting 4 2.8
2019-Dec-05 11:30 286 3 gusting 5 2.8
2019-Dec-05 11:20 297 3 gusting 6 2.8
2019-Dec-05 11:10 285 2 gusting 4 2.8
2019-Dec-05 11:00 305 2 gusting 4 2.8
2019-Dec-05 10:50 281 2 gusting 4 2.8
2019-Dec-05 10:40 288 2 gusting 4 2.2
2019-Dec-05 10:30 301 2 gusting 3 2.2
2019-Dec-05 10:20 280 1 gusting 3 1.7
2019-Dec-05 10:10 292 0 gusting 1 1.7
2019-Dec-05 10:00 287 0 gusting 2 1.1
2019-Dec-05 09:50 293 1.7
2019-Dec-05 09:40 277 0 gusting 2 1.7
2019-Dec-05 09:30 279 0 gusting 2 1.7
2019-Dec-05 09:20 286 1 gusting 3 2.2
2019-Dec-05 09:10 307 2 gusting 5 2.2
2019-Dec-05 09:00 277 2 gusting 4 2.2
2019-Dec-05 08:50 288 3 gusting 4 2.2
2019-Dec-05 08:40 281 2 gusting 3 1.7
2019-Dec-05 08:30 269 2 gusting 4 1.7
2019-Dec-05 08:20 293 1 gusting 3 1.7
2019-Dec-05 08:10 305 0 gusting 3 2.2
2019-Dec-05 08:00 287 2 gusting 4 2.2
2019-Dec-05 07:50 295 1 gusting 2 2.2
2019-Dec-05 07:40 307 0 gusting 2 2.2
2019-Dec-05 07:30 262 0 gusting 2 2.2
2019-Dec-05 07:20 290 1 gusting 2 2.2
2019-Dec-05 07:10 280 1 gusting 4 2.2
2019-Dec-05 07:00 298 0 gusting 3 2.8
2019-Dec-05 06:50 281 2 gusting 4 2.8
2019-Dec-05 06:40 294 1 gusting 2 2.8
2019-Dec-05 06:30 279 1 gusting 2 2.8
2019-Dec-05 06:20 292 2 gusting 5 2.8
2019-Dec-05 06:10 277 1 gusting 4 2.8
2019-Dec-05 06:00 305 2 gusting 4 2.8
2019-Dec-05 05:50 288 1 gusting 3 2.8
2019-Dec-05 05:40 293 0 gusting 3 2.8
2019-Dec-05 05:30 275 1 gusting 3 2.8
2019-Dec-05 05:20 289 2 gusting 3 2.8
2019-Dec-05 05:10 282 2 gusting 4 2.8
2019-Dec-05 05:00 271 2 gusting 4 3.3
2019-Dec-05 04:50 284 3 gusting 6 3.3
2019-Dec-05 04:40 286 3 gusting 6 3.3
2019-Dec-05 04:30 273 3 gusting 5 3.3
2019-Dec-05 04:20 281 3 gusting 5 3.3
2019-Dec-05 04:10 293 3 gusting 6 3.3
2019-Dec-05 04:00 275 3 gusting 6 3.3
2019-Dec-05 03:50 284 2 gusting 5 2.8
2019-Dec-05 03:40 280 2 gusting 4 2.8
2019-Dec-05 03:30 279 3 gusting 7 2.8
2019-Dec-05 03:20 265 3 gusting 4 3.3
2019-Dec-05 03:10 279 2 gusting 4 3.3
2019-Dec-05 03:00 286 3 gusting 5 3.3
2019-Dec-05 02:50 272 2 gusting 4 3.3
2019-Dec-05 02:40 275 3 gusting 4 3.3
2019-Dec-05 02:30 276 2 gusting 5 3.3
2019-Dec-05 02:20 273 2 gusting 4 3.9
2019-Dec-05 02:10 271 3 gusting 4 3.9
2019-Dec-05 02:00 274 3 gusting 4 3.9
2019-Dec-05 01:50 233 2 gusting 3 3.9
2019-Dec-05 01:40 286 3 gusting 5 3.9
2019-Dec-05 01:30 288 2 gusting 3 3.9
2019-Dec-05 01:20 282 2 gusting 3 3.9
2019-Dec-05 01:10 296 3 gusting 5 3.9
2019-Dec-05 01:00 286 4 gusting 6 3.9
2019-Dec-05 00:50 271 3 gusting 6 3.9
2019-Dec-05 00:40 292 2 gusting 6 3.9
2019-Dec-05 00:30 283 2 gusting 6 3.9
2019-Dec-05 00:20 282 1 gusting 2 3.3
2019-Dec-05 00:10 281 2 gusting 3 3.3
2019-Dec-05 00:00 290 1 gusting 3 3.3
2019-Dec-04 23:50 284 2 gusting 3 3.3
2019-Dec-04 23:40 284 2 gusting 3 3.3
2019-Dec-04 23:30 298 1 gusting 4 3.3
2019-Dec-04 23:20 307 2 gusting 4 3.3
2019-Dec-04 23:10 272 2 gusting 5 3.3
2019-Dec-04 23:00 282 2 gusting 3 3.3
2019-Dec-04 22:50 276 1 gusting 2 3.3
2019-Dec-04 22:40 260 1 gusting 3 3.3
2019-Dec-04 22:30 270 1 gusting 4 3.3
2019-Dec-04 22:20 293 1 gusting 4 3.9
2019-Dec-04 22:10 276 2 gusting 4 3.9
2019-Dec-04 22:00 295 0 gusting 2 3.9
2019-Dec-04 21:50 279 1 gusting 3 3.9
2019-Dec-04 21:40 269 3 gusting 5 3.9
2019-Dec-04 21:30 285 1 gusting 4 3.9
2019-Dec-04 21:20 278 1 gusting 3 3.9
2019-Dec-04 21:10 284 1 gusting 3 3.9
2019-Dec-04 21:00 304 2 gusting 3 3.9
2019-Dec-04 20:50 281 2 gusting 4 3.9
2019-Dec-04 20:40 283 1 gusting 2 3.9
2019-Dec-04 20:30 294 3 gusting 5 3.9
2019-Dec-04 20:20 272 3 gusting 6 3.9
2019-Dec-04 20:10 274 1 gusting 3 3.9
2019-Dec-04 20:00 275 2 gusting 4 3.9
2019-Dec-04 19:50 276 2 gusting 4 3.9
2019-Dec-04 19:40 284 3 gusting 6 4.4
2019-Dec-04 19:30 285 3 gusting 5 4.4
2019-Dec-04 19:20 284 2 gusting 3 4.4
2019-Dec-04 19:10 276 0 gusting 2 4.4
2019-Dec-04 19:00 259 1 gusting 3 3.9
2019-Dec-04 18:50 293 1 gusting 2 3.9
2019-Dec-04 18:40 281 1 gusting 3 3.9
2019-Dec-04 18:30 282 2 gusting 4 3.9
2019-Dec-04 18:20 265 2 gusting 4 3.9
2019-Dec-04 18:10 271 1 gusting 3 3.3
2019-Dec-04 18:00 283 1 gusting 3 3.3
2019-Dec-04 17:50 266 2 gusting 4 3.3
2019-Dec-04 17:40 277 3 gusting 5 3.3
2019-Dec-04 17:30 284 3 gusting 6 3.9
2019-Dec-04 17:20 286 3 gusting 5 3.9
2019-Dec-04 17:10 273 3 gusting 5 3.9
2019-Dec-04 17:00 264 2 gusting 3 3.9